createdAt,value
2023-11-30T00:02:50.307Z,99423.25
2023-11-30T00:07:53.230Z,99432.94
2023-11-30T00:12:55.361Z,99420.50
2023-11-30T00:17:57.566Z,99426.94
2023-11-30T00:22:59.744Z,99428.69
2023-11-30T00:28:01.877Z,99430.34
2023-11-30T00:33:04.519Z,99435.53
2023-11-30T00:38:06.667Z,99431.16
2023-11-30T00:43:09.238Z,99432.28
2023-11-30T00:48:11.937Z,99433.91
2023-11-30T00:53:14.108Z,99423.81
2023-11-30T00:58:16.232Z,99422.97
2023-11-30T01:03:18.463Z,99428.16
2023-11-30T01:08:20.682Z,99426.78
2023-11-30T01:13:22.837Z,99422.03
2023-11-30T01:18:25.390Z,99432.00
2023-11-30T01:23:27.629Z,99433.91
2023-11-30T01:28:30.777Z,99437.19
2023-11-30T01:33:32.958Z,99432.13
2023-11-30T01:43:37.292Z,99423.50
2023-11-30T01:48:39.489Z,99436.25
2023-11-30T01:53:41.806Z,99438.84
2023-11-30T01:58:44.151Z,99426.22
2023-11-30T02:08:49.192Z,99419.56
2023-11-30T02:13:51.459Z,99415.59
2023-11-30T02:18:53.593Z,99410.78
2023-11-30T02:23:55.981Z,99409.16
2023-11-30T02:28:58.278Z,99402.44
2023-11-30T02:34:00.421Z,99397.94
2023-11-30T02:39:02.605Z,99392.34
2023-11-30T02:44:04.921Z,99386.59
2023-11-30T02:49:07.052Z,99389.03
2023-11-30T02:54:10.032Z,99390.53
2023-11-30T02:59:12.311Z,99383.97
2023-11-30T03:04:14.721Z,99386.44
2023-11-30T03:09:17.397Z,99385.66
2023-11-30T03:14:19.601Z,99384.41
2023-11-30T03:19:21.941Z,99380.69
2023-11-30T03:24:24.811Z,99374.81
2023-11-30T03:29:27.004Z,99375.38
2023-11-30T03:34:29.119Z,99365.13
2023-11-30T03:39:31.313Z,99361.25
2023-11-30T03:44:33.509Z,99355.09
2023-11-30T03:49:35.673Z,99354.72
2023-11-30T03:54:38.055Z,99354.44
2023-11-30T03:59:40.727Z,99356.19
2023-11-30T04:04:43.554Z,99349.53
2023-11-30T04:09:47.040Z,99353.59
2023-11-30T04:14:49.160Z,99348.97
2023-11-30T04:19:51.338Z,99347.56
2023-11-30T04:24:53.521Z,99348.53
2023-11-30T04:29:55.820Z,99343.50
2023-11-30T04:34:59.136Z,99339.78
2023-11-30T04:40:01.248Z,99327.50
2023-11-30T04:45:03.874Z,99336.28
2023-11-30T04:50:07.180Z,99337.13
2023-11-30T04:55:09.746Z,99345.88
2023-11-30T05:00:12.439Z,99346.81
2023-11-30T05:05:14.617Z,99342.72
2023-11-30T05:10:16.798Z,99348.03
2023-11-30T05:15:19.107Z,99350.25
2023-11-30T05:20:21.428Z,99347.09
2023-11-30T05:25:23.565Z,99348.59
2023-11-30T05:30:26.952Z,99348.75
2023-11-30T05:35:29.118Z,99342.59
2023-11-30T05:40:31.453Z,99348.47
2023-11-30T05:45:33.614Z,99353.78
2023-11-30T05:50:36.828Z,99364.19
2023-11-30T05:55:38.954Z,99368.44
2023-11-30T06:00:41.114Z,99370.75
2023-11-30T06:05:43.303Z,99369.94
2023-11-30T06:10:45.448Z,99378.94
2023-11-30T06:15:47.774Z,99387.97
2023-11-30T06:20:50.015Z,99386.34
2023-11-30T06:25:52.185Z,99370.47
2023-11-30T06:30:54.456Z,99381.69
2023-11-30T06:35:56.608Z,99384.41
2023-11-30T06:40:58.941Z,99388.66
2023-11-30T06:46:01.148Z,99388.78
2023-11-30T06:51:06.399Z,99390.28
2023-11-30T06:56:11.984Z,99382.75
2023-11-30T07:01:14.201Z,99380.59
2023-11-30T07:06:16.404Z,99378.94
2023-11-30T07:11:18.564Z,99385.22
2023-11-30T07:16:20.737Z,99378.38
2023-11-30T07:21:23.043Z,99376.47
2023-11-30T07:26:25.161Z,99375.41
2023-11-30T07:31:27.719Z,99378.81
2023-11-30T07:36:29.959Z,99372.78
2023-11-30T07:41:32.136Z,99387.97
2023-11-30T07:46:35.484Z,99385.78
2023-11-30T07:51:37.652Z,99381.41
2023-11-30T07:56:39.799Z,99377.56
2023-11-30T08:01:43.358Z,99382.63
2023-11-30T08:06:46.867Z,99384.13
2023-11-30T08:11:49.283Z,99387.38
2023-11-30T08:16:51.405Z,99386.31
2023-11-30T08:21:53.608Z,99382.19
2023-11-30T08:26:55.888Z,99398.06
2023-11-30T08:31:59.408Z,99390.66
2023-11-30T08:37:01.842Z,99392.28
2023-11-30T08:42:04.227Z,99398.81
2023-11-30T08:47:06.568Z,99392.28
2023-11-30T08:52:08.673Z,99390.06
2023-11-30T08:57:13.549Z,99386.22
2023-11-30T09:02:16.259Z,99375.25
2023-11-30T09:07:18.996Z,99380.41
2023-11-30T09:12:22.011Z,99376.53
2023-11-30T09:17:24.844Z,99381.72
2023-11-30T09:22:26.973Z,99378.38
2023-11-30T09:27:29.135Z,99371.84
2023-11-30T09:32:31.319Z,99365.47
2023-11-30T09:37:33.595Z,99365.72
2023-11-30T09:42:35.824Z,99364.84
2023-11-30T09:47:38.043Z,99356.69
2023-11-30T09:52:41.226Z,99354.03
2023-11-30T09:57:43.475Z,99361.09
2023-11-30T10:07:59.708Z,99337.34
2023-11-30T10:13:01.938Z,99344.19
2023-11-30T10:18:06.159Z,99336.06
2023-11-30T10:23:13.233Z,99326.41
2023-11-30T10:28:15.815Z,99332.47
2023-11-30T10:33:21.897Z,99325.03
2023-11-30T10:38:37.961Z,99319.72
2023-11-30T10:43:44.770Z,99321.56
2023-11-30T10:48:47.013Z,99313.97
2023-11-30T10:54:09.362Z,99309.09
2023-11-30T10:59:15.514Z,99299.44
2023-11-30T11:04:17.937Z,99292.94
2023-11-30T11:09:20.563Z,99297.53
2023-11-30T11:19:35.337Z,99296.75
2023-11-30T11:24:43.445Z,99293.63
2023-11-30T11:29:46.727Z,99293.63
2023-11-30T11:34:48.947Z,99292.19
2023-11-30T11:39:52.423Z,99289.22
2023-11-30T11:55:04.861Z,99288.50
2023-11-30T12:00:11.251Z,99281.44
2023-11-30T12:05:25.931Z,99279.88
2023-11-30T12:15:45.985Z,99274.75
2023-11-30T12:20:50.173Z,99274.69
2023-11-30T12:25:54.076Z,99283.97
2023-11-30T12:30:58.157Z,99286.34
2023-11-30T12:46:05.235Z,99282.41
2023-11-30T13:01:12.480Z,99285.81
2023-11-30T13:11:16.942Z,99283.19
2023-11-30T13:16:19.770Z,99284.00
2023-11-30T13:21:22.546Z,99273.41
2023-11-30T13:26:24.701Z,99274.38
2023-11-30T13:36:29.251Z,99281.22
2023-11-30T13:41:31.438Z,99293.19
2023-11-30T13:46:33.680Z,99280.94
2023-11-30T13:51:35.831Z,99276.84
2023-11-30T13:56:39.253Z,99286.63
2023-11-30T14:01:41.607Z,99283.84
2023-11-30T14:06:44.300Z,99280.84
2023-11-30T14:11:46.513Z,99283.63
2023-11-30T14:16:48.934Z,99269.06
2023-11-30T14:21:51.289Z,99274.91
2023-11-30T14:26:53.014Z,99278.63
2023-11-30T14:31:54.810Z,99279.84
2023-11-30T14:36:56.572Z,99276.72
2023-11-30T14:41:58.486Z,99274.06
2023-11-30T14:47:00.371Z,99271.06
2023-11-30T14:57:07.492Z,99277.34
2023-11-30T15:02:10.321Z,99281.69
2023-11-30T15:07:12.094Z,99278.19
2023-11-30T15:12:13.782Z,99274.66
2023-11-30T15:17:15.488Z,99283.63
2023-11-30T15:22:17.178Z,99297.75
2023-11-30T15:27:18.955Z,99298.22
2023-11-30T15:32:20.636Z,99314.28
2023-11-30T15:37:22.606Z,99311.69
2023-11-30T15:42:25.596Z,99322.00
2023-11-30T15:47:27.660Z,99336.38
2023-11-30T16:02:33.256Z,99341.03
2023-11-30T16:07:36.001Z,99337.16
2023-11-30T16:12:38.378Z,99334.84
2023-11-30T16:17:40.676Z,99334.25
2023-11-30T16:22:43.008Z,99330.50
2023-11-30T16:27:45.306Z,99339.81
2023-11-30T16:32:47.589Z,99342.41
2023-11-30T16:37:49.740Z,99337.06
2023-11-30T16:42:51.881Z,99340.22
2023-11-30T16:47:55.280Z,99329.22
2023-11-30T16:52:58.817Z,99333.28
2023-11-30T16:58:01.729Z,99328.94
2023-11-30T17:03:04.595Z,99327.03
2023-11-30T17:08:06.761Z,99327.03
2023-11-30T17:13:09.093Z,99316.75
2023-11-30T17:18:11.998Z,99322.53
2023-11-30T17:23:14.170Z,99314.59
2023-11-30T17:28:16.299Z,99316.97
2023-11-30T17:33:18.773Z,99312.72
2023-11-30T17:38:21.050Z,99319.31
2023-11-30T17:43:23.258Z,99326.59
2023-11-30T17:48:25.448Z,99329.09
2023-11-30T17:53:27.583Z,99330.22
2023-11-30T17:58:29.292Z,99330.09
2023-11-30T18:03:31.011Z,99329.25
2023-11-30T18:08:32.995Z,99337.88
2023-11-30T18:13:34.688Z,99338.06
2023-11-30T18:23:38.139Z,99345.44
2023-11-30T18:28:40.559Z,99349.66
2023-11-30T18:33:42.247Z,99353.09
2023-11-30T18:38:50.411Z,99355.94
2023-11-30T18:43:53.447Z,99358.16
2023-11-30T18:48:55.145Z,99356.53
2023-11-30T18:53:57.604Z,99354.59
2023-11-30T19:04:02.151Z,99363.34
2023-11-30T19:09:03.970Z,99374.03
2023-11-30T19:14:05.775Z,99381.41
2023-11-30T19:19:07.919Z,99377.84
2023-11-30T19:24:12.287Z,99377.31
2023-11-30T19:29:15.155Z,99371.66
2023-11-30T19:34:17.033Z,99374.56
2023-11-30T19:39:18.745Z,99376.59
2023-11-30T19:44:20.710Z,99387.13
2023-11-30T19:49:22.504Z,99389.22
2023-11-30T19:54:24.328Z,99389.72
2023-11-30T19:59:26.537Z,99385.78
2023-11-30T20:04:28.709Z,99394.97
2023-11-30T20:09:30.460Z,99395.22
2023-11-30T20:14:32.112Z,99398.63
2023-11-30T20:19:36.939Z,99403.84
2023-11-30T20:24:38.625Z,99412.16
2023-11-30T20:34:42.205Z,99418.31
2023-11-30T20:44:47.690Z,99417.66
2023-11-30T20:49:49.475Z,99413.53
2023-11-30T20:59:53.287Z,99425.44
2023-11-30T21:04:55.025Z,99431.97
2023-11-30T21:09:57.242Z,99430.06
2023-11-30T21:14:58.953Z,99434.75
2023-11-30T21:20:01.328Z,99435.53
2023-11-30T21:25:03.573Z,99441.16
2023-11-30T21:30:06.081Z,99433.25
2023-11-30T21:35:08.381Z,99440.47
2023-11-30T21:40:10.942Z,99434.59
2023-11-30T21:45:14.433Z,99433.75
2023-11-30T21:50:19.478Z,99435.53
2023-11-30T21:55:21.451Z,99437.19
2023-11-30T22:00:23.272Z,99430.34
2023-11-30T22:05:30.839Z,99442.66
2023-11-30T22:10:37.918Z,99442.66
2023-11-30T22:15:39.609Z,99442.66
2023-11-30T22:25:56.214Z,99454.97
2023-11-30T22:31:05.228Z,99458.78
2023-11-30T22:36:07.840Z,99458.66
2023-11-30T22:41:10.721Z,99461.81
2023-11-30T22:46:19.418Z,99465.91
2023-11-30T22:51:22.338Z,99472.47
2023-11-30T22:56:26.258Z,99482.16
2023-11-30T23:01:28.204Z,99479.56
2023-11-30T23:06:30.084Z,99484.06
2023-11-30T23:11:31.800Z,99488.63
2023-11-30T23:16:33.666Z,99480.41
2023-11-30T23:21:35.362Z,99490.66
2023-11-30T23:26:37.355Z,99483.13
2023-11-30T23:31:39.200Z,99489.16
2023-11-30T23:36:40.932Z,99493.13
2023-11-30T23:41:42.583Z,99494.63
2023-11-30T23:46:44.320Z,99495.97
2023-11-30T23:51:46.008Z,99496.81
2023-11-30T23:56:47.996Z,99499.28
